^^
Station Historical Data
 
Daily Summary for February 19, 2019 Units:  English    Metric   Both
« Previous Day
Next Day »
Daily Weekly Monthly Yearly Custom
  Current: High: Low: Average:
Temperature: -10.4 °F TemperatureC °F -16.6 °F -9.5 °F
Dew Point: -11.6 °F DewpointC °F -17.4 °F -12.2 °F
Humidity: 91% Humidity% 59% 82%
Wind Speed: 0.0mph WindSpeedKMHmph 0.0mph 4.1mph
Wind Gust: 0.0mph WindSpeedGustKMHmph - -
WindCalm - - SSW
Pressure: 1029.6 in PressurehPa in 1029.3 in -
Precipitation: 0.0 in      
Historical Graphs
 
 
Tabular Data for February 19, 2019
Time Temperature Dew Point Pressure Wind Wind Speed Wind Gust Humidity Rainfall Rate (Hourly) solar Conditions
TemperatureC °F DewpointC °F PressurehPa in Calm     Humidity% HourlyPrecipMM in SoftwareType W/m2 Conditions
00:04 -12.9 °F -14.1 °F 1034.9 in SSW 3.7 mph 1.4 mph 91% 0.0 in WeatherDisplay:10.37 W/m2 CLR
00:09 -12.9 °F -14.1 °F 1035.0 in SSW 1.9 mph 1.1 mph 91% 0.0 in WeatherDisplay:10.37 W/m2 CLR
00:14 -12.9 °F -14.1 °F 1035.0 in SSW 3.7 mph 3.2 mph 91% 0.0 in WeatherDisplay:10.37 W/m2 CLR
00:19 -12.8 °F -13.9 °F 1035.4 in SSW 3.7 mph 2.1 mph 91% 0.0 in WeatherDisplay:10.37 W/m2 CLR
00:24 -12.6 °F -13.8 °F 1035.0 in South 3.7 mph 3.2 mph 91% 0.0 in WeatherDisplay:10.37 W/m2 CLR
00:29 -12.6 °F -13.8 °F 1035.0 in South 3.7 mph 2.9 mph 91% 0.0 in WeatherDisplay:10.37 W/m2 CLR
00:34 -12.5 °F -13.7 °F 1035.0 in SSW 3.7 mph 2.1 mph 91% 0.0 in WeatherDisplay:10.37 W/m2 CLR
00:39 -12.5 °F -13.7 °F 1035.0 in SSW 3.7 mph 2.9 mph 91% 0.0 in WeatherDisplay:10.37 W/m2 CLR
00:44 -12.5 °F -13.7 °F 1035.4 in SSW 3.7 mph 2.9 mph 91% 0.0 in WeatherDisplay:10.37 W/m2 CLR
00:49 -12.6 °F -13.8 °F 1035.4 in SSW 4.7 mph 3.2 mph 91% 0.0 in WeatherDisplay:10.37 W/m2 CLR
00:54 -12.6 °F -13.8 °F 1035.4 in SSE 5.6 mph 4.0 mph 91% 0.0 in WeatherDisplay:10.37 W/m2 CLR
00:59 -12.6 °F -13.8 °F 1035.4 in SSW 4.7 mph 4.0 mph 91% 0.0 in WeatherDisplay:10.37 W/m2 CLR
01:04 -12.7 °F -13.9 °F 1035.0 in SSW 6.4 mph 5.0 mph 91% 0.0 in WeatherDisplay:10.37 W/m2 FEW
01:09 -12.8 °F -13.9 °F 1035.5 in South 5.6 mph 4.7 mph 91% 0.0 in WeatherDisplay:10.37 W/m2 FEW
01:14 -13.0 °F -14.2 °F 1035.5 in South 3.7 mph 1.8 mph 91% 0.0 in WeatherDisplay:10.37 W/m2 FEW
01:19 -13.2 °F -14.3 °F 1035.5 in South 3.7 mph 3.2 mph 91% 0.0 in WeatherDisplay:10.37 W/m2 FEW
01:24 -13.2 °F -14.3 °F 1035.8 in South 3.7 mph 2.6 mph 91% 0.0 in WeatherDisplay:10.37 W/m2 FEW
01:29 -13.6 °F -14.8 °F 1035.5 in SSE 1.9 mph 0.3 mph 91% 0.0 in WeatherDisplay:10.37 W/m2 FEW
01:34 -13.6 °F -14.8 °F 1035.5 in Calm     91% 0.0 in WeatherDisplay:10.37 W/m2 FEW
01:39 -13.9 °F -15.1 °F 1035.5 in Calm     91% 0.0 in WeatherDisplay:10.37 W/m2 FEW
01:44 -14.2 °F -15.3 °F 1035.5 in Calm     91% 0.0 in WeatherDisplay:10.37 W/m2 FEW
01:49 -14.0 °F -15.2 °F 1035.5 in SW 5.6 mph 2.1 mph 91% 0.0 in WeatherDisplay:10.37 W/m2 FEW
01:54 -14.3 °F -15.4 °F 1035.8 in SW 1.9 mph 1.8 mph 91% 0.0 in WeatherDisplay:10.37 W/m2 FEW
01:59 -14.3 °F -15.4 °F 1035.5 in SW 5.6 mph 2.1 mph 91% 0.0 in WeatherDisplay:10.37 W/m2 FEW
02:04 -14.3 °F -15.4 °F 1035.5 in SW 5.6 mph 2.6 mph 91% 0.0 in WeatherDisplay:10.37 W/m2 CLR
02:09 -14.3 °F -15.4 °F 1035.9 in SW 1.9 mph 1.4 mph 91% 0.0 in WeatherDisplay:10.37 W/m2 CLR
02:14 -14.4 °F -15.6 °F 1035.9 in SW 1.9 mph 0.3 mph 91% 0.0 in WeatherDisplay:10.37 W/m2 CLR
02:19 -14.5 °F -15.7 °F 1035.6 in SSW 3.7 mph 2.1 mph 91% 0.0 in WeatherDisplay:10.37 W/m2 CLR
02:24 -14.5 °F -15.7 °F 1035.9 in SW 3.7 mph 2.6 mph 91% 0.0 in WeatherDisplay:10.37 W/m2 CLR
02:29 -14.7 °F -15.8 °F 1035.9 in SW 3.7 mph 2.6 mph 91% 0.0 in WeatherDisplay:10.37 W/m2 CLR
02:34 -14.5 °F -15.7 °F 1035.9 in South 5.6 mph 2.9 mph 91% 0.0 in WeatherDisplay:10.37 W/m2 CLR
02:39 -14.5 °F -15.7 °F 1035.9 in South 3.7 mph 2.9 mph 91% 0.0 in WeatherDisplay:10.37 W/m2 CLR
02:44 -14.5 °F -15.7 °F 1035.9 in South 3.7 mph 2.9 mph 91% 0.0 in WeatherDisplay:10.37 W/m2 CLR
02:49 -14.7 °F -15.8 °F 1035.9 in South 1.9 mph 1.8 mph 91% 0.0 in WeatherDisplay:10.37 W/m2 CLR
02:54 -14.5 °F -15.7 °F 1035.9 in SSE 3.7 mph 3.2 mph 91% 0.0 in WeatherDisplay:10.37 W/m2 CLR
02:59 -14.3 °F -15.4 °F 1035.9 in SSW 4.7 mph 3.2 mph 91% 0.0 in WeatherDisplay:10.37 W/m2 CLR
03:04 -14.3 °F -15.4 °F 1035.9 in SSE 3.7 mph 3.2 mph 91% 0.0 in WeatherDisplay:10.37 W/m2 CLR
03:09 -14.0 °F -15.2 °F 1036.2 in South 7.4 mph 5.0 mph 91% 0.0 in WeatherDisplay:10.37 W/m2 CLR
03:14 -13.9 °F -15.1 °F 1035.9 in South 7.9 mph 4.3 mph 91% 0.0 in WeatherDisplay:10.37 W/m2 CLR
03:19 -14.0 °F -15.2 °F 1036.3 in SSW 5.6 mph 4.0 mph 91% 0.0 in WeatherDisplay:10.37 W/m2 CLR
03:24 -14.0 °F -15.2 °F 1036.3 in South 5.6 mph 4.7 mph 91% 0.0 in WeatherDisplay:10.37 W/m2 CLR
03:29 -14.2 °F -15.3 °F 1036.3 in South 5.6 mph 3.2 mph 91% 0.0 in WeatherDisplay:10.37 W/m2 CLR
03:34 -14.3 °F -15.4 °F 1036.0 in South 5.6 mph 3.2 mph 91% 0.0 in WeatherDisplay:10.37 W/m2 CLR
03:39 -14.5 °F -15.7 °F 1036.0 in South 1.9 mph 2.6 mph 91% 0.0 in WeatherDisplay:10.37 W/m2 CLR
03:44 -14.7 °F -15.8 °F 1036.0 in South 1.9 mph 1.8 mph 91% 0.0 in WeatherDisplay:10.37 W/m2 CLR
03:49 -14.8 °F -15.9 °F 1036.0 in SSW 1.9 mph 1.1 mph 91% 0.0 in WeatherDisplay:10.37 W/m2 CLR
03:54 -14.9 °F -16.1 °F 1036.3 in SSW 3.7 mph 2.1 mph 91% 0.0 in WeatherDisplay:10.37 W/m2 CLR
03:59 -15.0 °F -16.2 °F 1036.3 in SSW 1.9 mph 3.2 mph 91% 0.0 in WeatherDisplay:10.37 W/m2 CLR
04:04 -15.0 °F -16.2 °F 1036.3 in South 1.9 mph 1.4 mph 91% 0.0 in WeatherDisplay:10.37 W/m2 CLR
04:09 -15.3 °F -16.4 °F 1036.0 in SSW 3.7 mph 1.4 mph 91% 0.0 in WeatherDisplay:10.37 W/m2 CLR
04:14 -15.4 °F -16.3 °F 1036.0 in SSW 1.9 mph 2.1 mph 93% 0.0 in WeatherDisplay:10.37 W/m2 CLR
04:19 -15.3 °F -16.2 °F 1036.3 in SSW 5.6 mph 3.5 mph 93% 0.0 in WeatherDisplay:10.37 W/m2 CLR
04:24 -15.1 °F -16.0 °F 1036.4 in SSW 3.7 mph 2.9 mph 93% 0.0 in WeatherDisplay:10.37 W/m2 CLR
04:29 -15.3 °F -16.2 °F 1036.4 in SSW 4.7 mph 2.9 mph 93% 0.0 in WeatherDisplay:10.37 W/m2 CLR
04:34 -15.1 °F -16.0 °F 1036.4 in SSW 5.6 mph 3.5 mph 93% 0.0 in WeatherDisplay:10.37 W/m2 CLR
04:39 -15.4 °F -16.3 °F 1036.4 in SW 3.7 mph 2.1 mph 93% 0.0 in WeatherDisplay:10.37 W/m2 CLR
04:44 -15.4 °F -16.3 °F 1036.4 in SSW 5.6 mph 2.6 mph 93% 0.0 in WeatherDisplay:10.37 W/m2 CLR
04:49 -15.4 °F -16.3 °F 1036.4 in South 3.7 mph 2.1 mph 93% 0.0 in WeatherDisplay:10.37 W/m2 CLR
04:54 -15.6 °F -16.5 °F 1036.4 in SSW 3.2 mph 2.1 mph 93% 0.0 in WeatherDisplay:10.37 W/m2 CLR
04:59 -15.7 °F -16.6 °F 1036.4 in SW 1.9 mph 1.1 mph 93% 0.0 in WeatherDisplay:10.37 W/m2 CLR
05:04 -15.8 °F -16.7 °F 1036.8 in SSW 1.4 mph   93% 0.0 in WeatherDisplay:10.37 W/m2 CLR
05:09 -15.8 °F -16.7 °F 1036.4 in SSW 3.2 mph 1.1 mph 93% 0.0 in WeatherDisplay:10.37 W/m2 CLR
05:14 -15.9 °F -16.8 °F 1036.8 in SSW 1.4 mph 1.1 mph 93% 0.0 in WeatherDisplay:10.37 W/m2 CLR
05:19 -15.9 °F -16.8 °F 1036.9 in SW 4.7 mph 1.8 mph 93% 0.0 in WeatherDisplay:10.37 W/m2 CLR
05:24 -16.1 °F -16.9 °F 1036.9 in West 1.9 mph 2.1 mph 93% 0.0 in WeatherDisplay:10.37 W/m2 CLR
05:29 -16.1 °F -16.9 °F 1036.9 in South 1.4 mph   93% 0.0 in WeatherDisplay:10.37 W/m2 CLR
05:34 -15.8 °F -16.7 °F 1036.9 in SSW 3.7 mph 2.6 mph 93% 0.0 in WeatherDisplay:10.37 W/m2 CLR
05:39 -16.1 °F -16.9 °F 1036.9 in SW 5.6 mph 2.9 mph 93% 0.0 in WeatherDisplay:10.37 W/m2 CLR
05:44 -15.8 °F -16.7 °F 1036.9 in South 5.6 mph 2.6 mph 93% 0.0 in WeatherDisplay:10.37 W/m2 CLR
05:49 -15.9 °F -16.8 °F 1036.9 in SSW 5.6 mph 2.6 mph 93% 0.0 in WeatherDisplay:10.37 W/m2 CLR
05:54 -15.9 °F -16.8 °F 1036.9 in South 1.9 mph 1.8 mph 93% 0.0 in WeatherDisplay:10.37 W/m2 CLR
05:59 -16.1 °F -16.9 °F 1036.9 in SW 3.7 mph 1.1 mph 93% 0.0 in WeatherDisplay:10.37 W/m2 CLR
06:04 -16.1 °F -16.9 °F 1036.9 in SSW 1.9 mph 2.1 mph 93% 0.0 in WeatherDisplay:10.37 W/m2 CLR
06:09 -16.1 °F -16.9 °F 1036.9 in South 3.7 mph 2.1 mph 93% 0.0 in WeatherDisplay:10.37 W/m2 CLR
06:14 -16.1 °F -16.9 °F 1036.9 in SSW 3.2 mph 2.1 mph 93% 0.0 in WeatherDisplay:10.37 W/m2 CLR
06:19 -16.3 °F -17.2 °F 1036.9 in SW 3.7 mph 3.5 mph 93% 0.0 in WeatherDisplay:10.37 W/m2 CLR
06:24 -16.3 °F -17.2 °F 1036.9 in SSW 1.9 mph 1.4 mph 93% 0.0 in WeatherDisplay:10.37 W/m2 CLR
06:29 -16.3 °F -17.2 °F 1036.9 in SSW 3.7 mph 2.1 mph 93% 0.0 in WeatherDisplay:10.37 W/m2 CLR
06:34 -16.3 °F -17.2 °F 1036.9 in South 3.7 mph 1.4 mph 93% 0.0 in WeatherDisplay:10.37 W/m2 CLR
06:39 -16.3 °F -17.2 °F 1036.9 in Calm   0.3 mph 93% 0.0 in WeatherDisplay:10.37 W/m2 CLR
06:44 -16.6 °F -17.4 °F 1037.0 in Calm     93% 0.0 in WeatherDisplay:10.37 W/m2 CLR
06:49 -16.4 °F -17.3 °F 1037.0 in SSW 3.7 mph 1.4 mph 93% 0.0 in WeatherDisplay:10.37 W/m2 CLR
06:54 -16.4 °F -17.3 °F 1037.0 in SSW 1.9 mph 0.6 mph 93% 0.0 in WeatherDisplay:10.37 W/m2 CLR
06:59 -16.4 °F -17.3 °F 1037.0 in SSW 3.7 mph 0.6 mph 93% 0.0 in WeatherDisplay:10.37 W/m2 CLR
07:04 -16.4 °F -17.3 °F 1037.0 in SW 1.4 mph 0.3 mph 93% 0.0 in WeatherDisplay:10.37 W/m2 CLR
07:09 -16.1 °F -16.9 °F 1037.3 in SSW 5.6 mph 2.9 mph 93% 0.0 in WeatherDisplay:10.37 W/m2 CLR
07:14 -15.9 °F -16.8 °F 1037.3 in SW 3.7 mph 1.8 mph 93% 0.0 in WeatherDisplay:10.37 W/m2 CLR
07:19 -15.6 °F -16.5 °F 1037.3 in SSE 5.6 mph 3.2 mph 93% 0.0 in WeatherDisplay:10.37 W/m2 CLR
07:24 -15.6 °F -16.5 °F 1037.3 in South 5.6 mph 2.9 mph 93% 0.0 in WeatherDisplay:10.37 W/m2 CLR
07:29 -15.3 °F -16.2 °F 1037.6 in SSW 3.7 mph 3.2 mph 93% 0.0 in WeatherDisplay:10.37 W/m2 CLR
07:34 -14.0 °F -14.9 °F 1037.6 in SSW 3.7 mph 3.2 mph 93% 0.0 in WeatherDisplay:10.37 W/m2 CLR
07:39 -13.7 °F -14.6 °F 1037.6 in South 3.7 mph 2.9 mph 93% 0.0 in WeatherDisplay:10.37 W/m2 CLR
07:44 -13.3 °F -14.4 °F 1037.6 in SE 4.7 mph 3.5 mph 91% 0.0 in WeatherDisplay:10.37 W/m2 CLR
07:49 -13.3 °F -14.4 °F 1038.0 in South 6.4 mph 4.7 mph 91% 0.0 in WeatherDisplay:10.37 W/m2 CLR
07:54 -13.2 °F -14.3 °F 1037.6 in SSW 5.6 mph 5.0 mph 91% 0.0 in WeatherDisplay:10.37 W/m2 CLR
07:59 -12.8 °F -13.9 °F 1038.0 in SSW 7.9 mph 5.0 mph 91% 0.0 in WeatherDisplay:10.37 W/m2 CLR
08:04 -12.5 °F -13.7 °F 1037.6 in South 5.6 mph 4.0 mph 91% 0.0 in WeatherDisplay:10.37 W/m2 CLR
08:09 -12.4 °F -13.7 °F 1038.0 in South 7.9 mph 5.8 mph 90% 0.0 in WeatherDisplay:10.37 W/m2 CLR
08:14 -12.2 °F -13.8 °F 1038.0 in South 5.6 mph 5.0 mph 88% 0.0 in WeatherDisplay:10.37 W/m2 CLR
08:19 -12.2 °F -13.8 °F 1038.0 in South 5.6 mph 5.8 mph 88% 0.0 in WeatherDisplay:10.37 W/m2 CLR
08:24 -12.2 °F -13.8 °F 1038.0 in West 13.0 mph 5.8 mph 88% 0.0 in WeatherDisplay:10.37 W/m2 CLR
08:29 -12.3 °F -14.2 °F 1038.3 in SSW 13.0 mph 7.9 mph 86% 0.0 in WeatherDisplay:10.37 W/m2 CLR
08:34 -12.1 °F -13.9 °F 1038.3 in South 9.3 mph 8.2 mph 86% 0.0 in WeatherDisplay:10.37 W/m2 CLR
08:39 -11.6 °F -13.4 °F 1038.3 in South 11.1 mph 6.4 mph 86% 0.0 in WeatherDisplay:10.37 W/m2 CLR
08:44 -11.6 °F -13.6 °F 1038.3 in South 9.3 mph 7.9 mph 85% 0.0 in WeatherDisplay:10.37 W/m2 CLR
08:49 -11.8 °F -13.8 °F 1038.3 in SW 7.4 mph 5.0 mph 85% 0.0 in WeatherDisplay:10.37 W/m2 CLR
08:54 -11.8 °F -13.8 °F 1038.3 in SSW 9.3 mph 6.8 mph 85% 0.0 in WeatherDisplay:10.37 W/m2 CLR
08:59 -11.6 °F -13.6 °F 1038.3 in South 7.4 mph 5.8 mph 85% 0.0 in WeatherDisplay:10.37 W/m2 CLR
09:04 -11.0 °F -13.3 °F 1038.3 in South 6.4 mph 5.0 mph 83% 0.0 in WeatherDisplay:10.37 W/m2 CLR
09:09 -10.7 °F -13.0 °F 1038.3 in WSW 5.6 mph 3.5 mph 83% 0.0 in WeatherDisplay:10.37 W/m2 CLR
09:14 -10.2 °F -12.8 °F 1038.3 in SW 6.4 mph 5.0 mph 81% 0.0 in WeatherDisplay:10.37 W/m2 CLR
09:19 -9.8 °F -12.6 °F 1038.0 in SSW 5.6 mph 4.0 mph 80% 0.0 in WeatherDisplay:10.37 W/m2 CLR
09:24 -9.5 °F -12.3 °F 1038.0 in SSW 4.7 mph 3.5 mph 80% 0.0 in WeatherDisplay:10.37 W/m2 CLR
09:29 -9.4 °F -12.4 °F 1038.3 in West 5.6 mph 4.7 mph 79% 0.0 in WeatherDisplay:10.37 W/m2 CLR
09:34 -9.3 °F -12.8 °F 1038.0 in South 5.6 mph 4.0 mph 76% 0.0 in WeatherDisplay:10.37 W/m2 CLR
09:39 -8.8 °F -12.3 °F 1038.3 in South 5.6 mph 4.7 mph 76% 0.0 in WeatherDisplay:10.37 W/m2 CLR
09:44 -8.9 °F -12.1 °F 1038.0 in WSW 5.6 mph 3.2 mph 78% 0.0 in WeatherDisplay:10.37 W/m2 CLR
09:49 -8.7 °F -12.3 °F 1038.0 in West 5.6 mph 3.5 mph 75% 0.0 in WeatherDisplay:10.37 W/m2 CLR
09:54 -8.2 °F -11.8 °F 1038.0 in SSW 5.6 mph 4.7 mph 75% 0.0 in WeatherDisplay:10.37 W/m2 CLR
09:59 -7.8 °F -11.6 °F 1038.3 in West 5.6 mph 4.0 mph 74% 0.0 in WeatherDisplay:10.37 W/m2 CLR
10:04 -7.8 °F -11.6 °F 1038.0 in West 5.6 mph 4.0 mph 74% 0.0 in WeatherDisplay:10.37 W/m2 CLR
10:09 -7.2 °F -11.6 °F 1038.0 in SSW 6.4 mph 4.0 mph 71% 0.0 in WeatherDisplay:10.37 W/m2 CLR
10:14 -6.4 °F -11.0 °F 1038.3 in SSW 5.6 mph 2.9 mph 70% 0.0 in WeatherDisplay:10.37 W/m2 CLR
10:19 -6.3 °F -11.1 °F 1038.0 in SW 5.6 mph 3.5 mph 69% 0.0 in WeatherDisplay:10.37 W/m2 CLR
10:24 -7.1 °F -11.7 °F 1038.0 in WSW 6.4 mph 5.0 mph 70% 0.0 in WeatherDisplay:10.37 W/m2 CLR
10:29 -6.7 °F -11.3 °F 1038.3 in SW 9.3 mph 6.1 mph 70% 0.0 in WeatherDisplay:10.37 W/m2 CLR
10:34 -6.6 °F -11.2 °F 1038.0 in SSW 5.6 mph 4.0 mph 70% 0.0 in WeatherDisplay:10.37 W/m2 CLR
10:39 -5.9 °F -11.2 °F 1038.0 in South 7.4 mph 6.4 mph 66% 0.0 in WeatherDisplay:10.37 W/m2 CLR
10:44 -5.3 °F -10.8 °F 1037.9 in WSW 5.6 mph 5.8 mph 65% 0.0 in WeatherDisplay:10.37 W/m2 CLR
10:49 -5.1 °F -11.1 °F 1037.9 in SSW 6.4 mph 5.0 mph 63% 0.0 in WeatherDisplay:10.37 W/m2 CLR
10:54 -4.9 °F -10.9 °F 1037.9 in West 5.6 mph 5.0 mph 63% 0.0 in WeatherDisplay:10.37 W/m2 CLR
10:59 -4.8 °F -10.8 °F 1037.9 in SW 5.6 mph 4.7 mph 63% 0.0 in WeatherDisplay:10.37 W/m2 CLR
11:04 -4.9 °F -10.9 °F 1037.5 in SW 6.4 mph 5.8 mph 63% 0.0 in WeatherDisplay:10.37 W/m2 CLR
11:09 -4.9 °F -10.9 °F 1037.9 in SSW 7.4 mph 6.1 mph 63% 0.0 in WeatherDisplay:10.37 W/m2 CLR
11:14 -4.8 °F -10.8 °F 1037.9 in SSW 7.4 mph 6.4 mph 63% 0.0 in WeatherDisplay:10.37 W/m2 CLR
11:19 -4.2 °F -10.2 °F 1037.5 in SSW 7.9 mph 6.8 mph 63% 0.0 in WeatherDisplay:10.37 W/m2 CLR
11:24 -4.4 °F -10.4 °F 1037.5 in West 9.7 mph 6.1 mph 63% 0.0 in WeatherDisplay:10.37 W/m2 CLR
11:29 -4.6 °F -10.6 °F 1037.5 in West 5.6 mph 5.8 mph 63% 0.0 in WeatherDisplay:10.37 W/m2 CLR
11:34 -4.3 °F -10.7 °F 1037.5 in SSW 5.6 mph 4.3 mph 61% 0.0 in WeatherDisplay:10.37 W/m2 CLR
11:39 -4.4 °F -10.8 °F 1037.5 in South 7.4 mph 5.0 mph 61% 0.0 in WeatherDisplay:10.37 W/m2 CLR
11:44 -4.2 °F -10.6 °F 1037.5 in WSW 6.4 mph 6.8 mph 61% 0.0 in WeatherDisplay:10.37 W/m2 CLR
11:49 -4.2 °F -10.6 °F 1037.5 in WSW 7.9 mph 6.1 mph 61% 0.0 in WeatherDisplay:10.37 W/m2 CLR
11:54 -4.1 °F -10.5 °F 1037.4 in SW 7.4 mph 6.4 mph 61% 0.0 in WeatherDisplay:10.37 W/m2 CLR
11:59 -4.0 °F -10.4 °F 1037.1 in SSW 5.6 mph 5.5 mph 61% 0.0 in WeatherDisplay:10.37 W/m2 CLR
12:04 -4.2 °F -10.2 °F 1037.1 in SSW 7.4 mph 6.4 mph 63% 0.0 in WeatherDisplay:10.37 W/m2 CLR
12:09 -3.8 °F -10.2 °F 1036.8 in WSW 5.6 mph 4.3 mph 61% 0.0 in WeatherDisplay:10.37 W/m2 CLR
12:14 -3.5 °F -9.9 °F 1036.8 in SW 7.4 mph 5.8 mph 61% 0.0 in WeatherDisplay:10.37 W/m2 CLR
12:19 -3.7 °F -10.1 °F 1036.4 in South 3.7 mph 6.1 mph 61% 0.0 in WeatherDisplay:10.37 W/m2 CLR
12:24 -3.8 °F -9.8 °F 1036.4 in SSE 6.4 mph 5.5 mph 63% 0.0 in WeatherDisplay:10.37 W/m2 CLR
12:29 -3.2 °F -9.7 °F 1036.1 in SSE 5.6 mph 4.7 mph 61% 0.0 in WeatherDisplay:10.37 W/m2 CLR
12:34 -3.2 °F -9.7 °F 1036.1 in SSW 7.9 mph 4.0 mph 61% 0.0 in WeatherDisplay:10.37 W/m2 CLR
12:39 -3.2 °F -9.7 °F 1036.1 in SSW 5.6 mph 5.5 mph 61% 0.0 in WeatherDisplay:10.37 W/m2 CLR
12:44 -3.2 °F -9.7 °F 1035.8 in SW 6.4 mph 6.4 mph 61% 0.0 in WeatherDisplay:10.37 W/m2 CLR
12:49 -2.7 °F -9.2 °F 1035.3 in SSE 6.4 mph 4.0 mph 61% 0.0 in WeatherDisplay:10.37 W/m2 CLR
12:54 -2.5 °F -9.2 °F 1035.7 in SSW 5.6 mph 4.7 mph 60% 0.0 in WeatherDisplay:10.37 W/m2 CLR
12:59 -2.6 °F -9.1 °F 1035.3 in South 5.6 mph 4.0 mph 61% 0.0 in WeatherDisplay:10.37 W/m2 CLR
13:04 -2.5 °F -9.0 °F 1035.3 in SSE 5.6 mph 4.0 mph 61% 0.0 in WeatherDisplay:10.37 W/m2 CLR
13:09 -2.6 °F -9.1 °F 1035.0 in SSW 5.6 mph 4.7 mph 61% 0.0 in WeatherDisplay:10.37 W/m2 CLR
13:14 -2.3 °F -8.8 °F 1035.0 in South 5.6 mph 3.5 mph 61% 0.0 in WeatherDisplay:10.37 W/m2 CLR
13:19 -2.3 °F -8.8 °F 1035.0 in SSW 7.9 mph 5.8 mph 61% 0.0 in WeatherDisplay:10.37 W/m2 CLR
13:24 -2.5 °F -9.0 °F 1035.0 in SSW 7.9 mph 5.5 mph 61% 0.0 in WeatherDisplay:10.37 W/m2 CLR
13:29 -2.5 °F -9.0 °F 1035.0 in SSW 7.9 mph 5.5 mph 61% 0.0 in WeatherDisplay:10.37 W/m2 CLR
13:34 -2.4 °F -8.9 °F 1035.0 in South 5.6 mph 5.8 mph 61% 0.0 in WeatherDisplay:10.37 W/m2 CLR
13:39 -2.4 °F -8.9 °F 1035.0 in SSW 5.6 mph 5.8 mph 61% 0.0 in WeatherDisplay:10.37 W/m2 CLR
13:44 -2.4 °F -9.1 °F 1035.0 in SSW 9.7 mph 9.7 mph 60% 0.0 in WeatherDisplay:10.37 W/m2 CLR
13:49 -2.3 °F -8.8 °F 1034.6 in South 5.6 mph 5.8 mph 61% 0.0 in WeatherDisplay:10.37 W/m2 CLR
13:54 -2.1 °F -8.6 °F 1034.6 in SSW 7.4 mph 6.1 mph 61% 0.0 in WeatherDisplay:10.37 W/m2 CLR
13:59 -2.3 °F -9.2 °F 1034.5 in SSW 9.3 mph 6.8 mph 59% 0.0 in WeatherDisplay:10.37 W/m2 CLR
14:04 -2.4 °F -8.9 °F 1034.5 in SW 9.7 mph 7.9 mph 61% 0.0 in WeatherDisplay:10.37 W/m2 CLR
14:09 -2.3 °F -9.0 °F 1034.2 in SSE 6.4 mph 6.1 mph 60% 0.0 in WeatherDisplay:10.37 W/m2 CLR
14:14 -2.3 °F -9.0 °F 1034.2 in SW 7.9 mph 5.0 mph 60% 0.0 in WeatherDisplay:10.37 W/m2 CLR
14:19 -2.4 °F -9.1 °F 1033.9 in SSW 7.9 mph 5.8 mph 60% 0.0 in WeatherDisplay:10.37 W/m2 CLR
14:24 -2.5 °F -9.0 °F 1034.2 in South 7.4 mph 4.7 mph 61% 0.0 in WeatherDisplay:10.37 W/m2 CLR
14:29 -2.6 °F -9.1 °F 1033.9 in South 5.6 mph 6.4 mph 61% 0.0 in WeatherDisplay:10.37 W/m2 CLR
14:34 -2.4 °F -8.9 °F 1033.9 in SSW 7.4 mph 6.1 mph 61% 0.0 in WeatherDisplay:10.37 W/m2 CLR
14:39 -2.4 °F -8.5 °F 1033.9 in SW 9.7 mph 8.7 mph 63% 0.0 in WeatherDisplay:10.37 W/m2 CLR
14:44 -2.5 °F -8.6 °F 1033.9 in South 6.4 mph 7.6 mph 63% 0.0 in WeatherDisplay:10.37 W/m2 CLR
14:49 -2.5 °F -8.6 °F 1033.4 in South 9.3 mph 6.8 mph 63% 0.0 in WeatherDisplay:10.37 W/m2 CLR
14:54 -2.6 °F -8.7 °F 1033.4 in SSW 9.3 mph 5.8 mph 63% 0.0 in WeatherDisplay:10.37 W/m2 CLR
14:59 -2.6 °F -8.7 °F 1033.8 in SW 9.7 mph 7.6 mph 63% 0.0 in WeatherDisplay:10.37 W/m2 CLR
15:04 -2.7 °F -8.4 °F 1033.8 in SW 12.9 mph 7.9 mph 65% 0.0 in WeatherDisplay:10.37 W/m2 CLR
15:09 -2.7 °F -8.8 °F 1033.8 in South 5.6 mph 6.8 mph 63% 0.0 in WeatherDisplay:10.37 W/m2 CLR
15:14 -2.6 °F -8.7 °F 1033.4 in South 5.6 mph 5.8 mph 63% 0.0 in WeatherDisplay:10.37 W/m2 CLR
15:19 -2.7 °F -8.8 °F 1033.4 in SSW 9.7 mph 7.6 mph 63% 0.0 in WeatherDisplay:10.37 W/m2 CLR
15:24 -2.8 °F -8.9 °F 1033.4 in SSW 9.3 mph 7.6 mph 63% 0.0 in WeatherDisplay:10.37 W/m2 CLR
15:29 -2.9 °F -8.6 °F 1033.4 in SW 9.3 mph 6.4 mph 65% 0.0 in WeatherDisplay:10.37 W/m2 CLR
15:34 -3.0 °F -8.7 °F 1033.4 in South 5.6 mph 5.5 mph 65% 0.0 in WeatherDisplay:10.37 W/m2 CLR
15:39 -3.0 °F -8.7 °F 1033.4 in South 5.6 mph 5.0 mph 65% 0.0 in WeatherDisplay:10.37 W/m2 CLR
15:44 -3.2 °F -8.7 °F 1033.1 in SSE 5.6 mph 4.0 mph 66% 0.0 in WeatherDisplay:10.37 W/m2 CLR
15:49 -3.4 °F -8.4 °F 1033.1 in South 3.7 mph 4.3 mph 68% 0.0 in WeatherDisplay:10.37 W/m2 CLR
15:54 -3.2 °F -8.3 °F 1033.1 in SSW 6.4 mph 4.7 mph 68% 0.0 in WeatherDisplay:10.37 W/m2 CLR
15:59 -3.2 °F -8.3 °F 1033.0 in South 7.9 mph 6.8 mph 68% 0.0 in WeatherDisplay:10.37 W/m2 CLR
16:04 -3.3 °F -8.4 °F 1033.0 in SSE 7.9 mph 7.2 mph 68% 0.0 in WeatherDisplay:10.37 W/m2 CLR
16:09 -3.4 °F -8.3 °F 1033.0 in SSW 7.4 mph 6.4 mph 69% 0.0 in WeatherDisplay:10.37 W/m2 CLR
16:14 -3.4 °F -8.3 °F 1033.0 in SSE 3.7 mph 5.5 mph 69% 0.0 in WeatherDisplay:10.37 W/m2 CLR
16:19 -3.5 °F -8.2 °F 1032.6 in SSE 6.4 mph 5.0 mph 70% 0.0 in WeatherDisplay:10.37 W/m2 CLR
16:24 -3.5 °F -8.2 °F 1032.6 in SSE 6.4 mph 5.0 mph 70% 0.0 in WeatherDisplay:10.37 W/m2 CLR
16:29 -3.9 °F -8.6 °F 1032.6 in SSW 9.7 mph 6.4 mph 70% 0.0 in WeatherDisplay:10.37 W/m2 CLR
16:34 -3.9 °F -8.6 °F 1032.6 in SSW 9.7 mph 6.4 mph 70% 0.0 in WeatherDisplay:10.37 W/m2 CLR
16:39 -4.1 °F -8.6 °F 1032.6 in SSE 7.4 mph 5.0 mph 71% 0.0 in WeatherDisplay:10.37 W/m2 CLR
16:44 -4.3 °F -8.4 °F 1032.6 in SSW 5.6 mph 4.3 mph 73% 0.0 in WeatherDisplay:10.37 W/m2 CLR
16:49 -4.3 °F -8.4 °F 1032.6 in SSW 5.6 mph 4.0 mph 73% 0.0 in WeatherDisplay:10.37 W/m2 CLR
16:54 -4.6 °F -8.7 °F 1032.3 in SSW 5.6 mph 4.3 mph 73% 0.0 in WeatherDisplay:10.37 W/m2 CLR
16:59 -4.8 °F -8.7 °F 1032.2 in South 3.7 mph 2.9 mph 74% 0.0 in WeatherDisplay:10.37 W/m2 CLR
17:04 -5.2 °F -8.9 °F 1032.2 in South 5.6 mph 3.5 mph 75% 0.0 in WeatherDisplay:10.37 W/m2 CLR
17:09 -5.3 °F -9.1 °F 1032.5 in WSW 5.6 mph 4.3 mph 75% 0.0 in WeatherDisplay:10.37 W/m2 CLR
17:14 -5.3 °F -9.1 °F 1032.2 in ESE 1.9 mph 3.5 mph 75% 0.0 in WeatherDisplay:10.37 W/m2 CLR
17:19 -5.6 °F -9.2 °F 1032.5 in SSW 3.7 mph 2.9 mph 76% 0.0 in WeatherDisplay:10.37 W/m2 CLR
17:24 -5.9 °F -8.9 °F 1032.5 in SSW 3.7 mph 2.6 mph 79% 0.0 in WeatherDisplay:10.37 W/m2 CLR
17:29 -6.0 °F -9.1 °F 1032.5 in South 1.9 mph 3.2 mph 79% 0.0 in WeatherDisplay:10.37 W/m2 CLR
17:34 -6.0 °F -9.1 °F 1032.9 in SSE 3.7 mph 3.2 mph 79% 0.0 in WeatherDisplay:10.37 W/m2 CLR
17:39 -6.4 °F -9.1 °F 1032.9 in ESE 3.7 mph 2.9 mph 81% 0.0 in WeatherDisplay:10.37 W/m2 CLR
17:44 -6.8 °F -9.5 °F 1033.2 in South 3.7 mph 2.1 mph 81% 0.0 in WeatherDisplay:10.37 W/m2 CLR
17:49 -6.8 °F -9.5 °F 1033.2 in South 5.6 mph 3.2 mph 81% 0.0 in WeatherDisplay:10.37 W/m2 CLR
17:54 -7.1 °F -9.5 °F 1033.2 in South 1.4 mph 1.4 mph 83% 0.0 in WeatherDisplay:10.37 W/m2 CLR
17:59 -7.3 °F -9.7 °F 1033.6 in SE 1.4 mph 0.6 mph 83% 0.0 in WeatherDisplay:10.37 W/m2 CLR
18:04 -7.3 °F -9.7 °F 1033.2 in ESE 1.9 mph 0.6 mph 83% 0.0 in WeatherDisplay:10.37 W/m2 CLR
18:09 -7.7 °F -10.1 °F 1033.6 in ESE 1.9 mph 1.1 mph 83% 0.0 in WeatherDisplay:10.37 W/m2 CLR
18:14 -7.8 °F -10.2 °F 1033.2 in Calm     83% 0.0 in WeatherDisplay:10.37 W/m2 CLR
18:19 -7.9 °F -10.3 °F 1033.2 in Calm     83% 0.0 in WeatherDisplay:10.37 W/m2 CLR
18:24 -8.1 °F -10.5 °F 1033.2 in Calm     83% 0.0 in WeatherDisplay:10.37 W/m2 CLR
18:29 -8.3 °F -10.4 °F 1032.9 in Calm     85% 0.0 in WeatherDisplay:10.37 W/m2 CLR
18:34 -8.3 °F -10.2 °F 1032.9 in Calm     86% 0.0 in WeatherDisplay:10.37 W/m2 CLR
18:39 -8.4 °F -10.3 °F 1032.8 in Calm     86% 0.0 in WeatherDisplay:10.37 W/m2 CLR
18:44 -8.5 °F -10.4 °F 1032.4 in Calm     86% 0.0 in WeatherDisplay:10.37 W/m2 CLR
18:49 -8.8 °F -10.7 °F 1032.8 in Calm     86% 0.0 in WeatherDisplay:10.37 W/m2 CLR
18:54 -8.8 °F -10.7 °F 1032.4 in Calm     86% 0.0 in WeatherDisplay:10.37 W/m2 CLR
18:59 -8.9 °F -10.5 °F 1032.4 in Calm     88% 0.0 in WeatherDisplay:10.37 W/m2 CLR
19:04 -8.9 °F -10.5 °F 1032.8 in Calm     88% 0.0 in WeatherDisplay:10.37 W/m2 CLR
19:09 -8.9 °F -10.5 °F 1032.8 in Calm     88% 0.0 in WeatherDisplay:10.37 W/m2 CLR
19:14 -9.0 °F -10.6 °F 1032.4 in ESE 1.4 mph   88% 0.0 in WeatherDisplay:10.37 W/m2 CLR
19:19 -9.1 °F -10.7 °F 1032.8 in ESE 1.9 mph 1.1 mph 88% 0.0 in WeatherDisplay:10.37 W/m2 CLR
19:24 -9.3 °F -10.9 °F 1032.4 in Calm     88% 0.0 in WeatherDisplay:10.37 W/m2 CLR
19:29 -9.4 °F -11.0 °F 1032.4 in Calm     88% 0.0 in WeatherDisplay:10.37 W/m2 CLR
19:34 -9.6 °F -11.2 °F 1032.4 in Calm     88% 0.0 in WeatherDisplay:10.37 W/m2 CLR
19:39 -9.6 °F -11.2 °F 1032.1 in Calm     88% 0.0 in WeatherDisplay:10.37 W/m2 CLR
19:44 -9.6 °F -10.9 °F 1032.1 in Calm     90% 0.0 in WeatherDisplay:10.37 W/m2 CLR
19:49 -9.6 °F -10.9 °F 1032.1 in Calm     90% 0.0 in WeatherDisplay:10.37 W/m2 CLR
19:54 -9.7 °F -11.1 °F 1032.1 in Calm     90% 0.0 in WeatherDisplay:10.37 W/m2 CLR
19:59 -9.7 °F -11.1 °F 1032.1 in Calm     90% 0.0 in WeatherDisplay:10.37 W/m2 CLR
20:04 -9.7 °F -11.1 °F 1032.0 in Calm     90% 0.0 in WeatherDisplay:10.37 W/m2 CLR
20:09 -9.7 °F -11.1 °F 1031.7 in Calm     90% 0.0 in WeatherDisplay:10.37 W/m2 CLR
20:14 -9.7 °F -11.1 °F 1031.7 in Calm     90% 0.0 in WeatherDisplay:10.37 W/m2 CLR
20:19 -9.8 °F -11.1 °F 1031.7 in Calm     90% 0.0 in WeatherDisplay:10.37 W/m2 CLR
20:24 -10.1 °F -11.4 °F 1031.3 in Calm     90% 0.0 in WeatherDisplay:10.37 W/m2 CLR
20:29 -10.2 °F -11.5 °F 1031.3 in Calm     90% 0.0 in WeatherDisplay:10.37 W/m2 CLR
20:34 -10.3 °F -11.6 °F 1031.3 in Calm     90% 0.0 in WeatherDisplay:10.37 W/m2 CLR
20:39 -10.3 °F -11.6 °F 1031.3 in Calm     90% 0.0 in WeatherDisplay:10.37 W/m2 CLR
20:44 -10.3 °F -11.6 °F 1031.3 in Calm     90% 0.0 in WeatherDisplay:10.37 W/m2 CLR
20:49 -10.3 °F -11.5 °F 1031.0 in Calm     91% 0.0 in WeatherDisplay:10.37 W/m2 CLR
20:54 -10.3 °F -11.5 °F 1031.3 in Calm     91% 0.0 in WeatherDisplay:10.37 W/m2 CLR
20:59 -10.4 °F -11.6 °F 1031.3 in Calm     91% 0.0 in WeatherDisplay:10.37 W/m2 CLR
21:04 -10.4 °F -11.6 °F 1031.0 in Calm     91% 0.0 in WeatherDisplay:10.37 W/m2 CLR
21:09 -10.4 °F -11.6 °F 1031.3 in Calm     91% 0.0 in WeatherDisplay:10.37 W/m2 CLR
21:14 -10.4 °F -11.6 °F 1031.0 in Calm     91% 0.0 in WeatherDisplay:10.37 W/m2 CLR
21:19 -10.3 °F -11.5 °F 1031.0 in Calm     91% 0.0 in WeatherDisplay:10.37 W/m2 CLR
21:24 -10.3 °F -11.5 °F 1031.0 in Calm     91% 0.0 in WeatherDisplay:10.37 W/m2 CLR
21:29 -10.3 °F -11.5 °F 1031.0 in Calm     91% 0.0 in WeatherDisplay:10.37 W/m2 CLR
21:34 -10.2 °F -11.4 °F 1031.0 in Calm     91% 0.0 in WeatherDisplay:10.37 W/m2 CLR
21:39 -10.2 °F -11.4 °F 1030.7 in Calm     91% 0.0 in WeatherDisplay:10.37 W/m2 CLR
21:44 -10.2 °F -11.4 °F 1030.7 in Calm     91% 0.0 in WeatherDisplay:10.37 W/m2 CLR
21:49 -10.2 °F -11.4 °F 1031.0 in Calm     91% 0.0 in WeatherDisplay:10.37 W/m2 CLR
21:54 -9.9 °F -11.1 °F 1031.0 in Calm     91% 0.0 in WeatherDisplay:10.37 W/m2 CLR
21:59 -9.9 °F -11.1 °F 1030.7 in Calm     91% 0.0 in WeatherDisplay:10.37 W/m2 CLR
22:04 -10.1 °F -11.3 °F 1030.7 in Calm     91% 0.0 in WeatherDisplay:10.37 W/m2 CLR
22:09 -10.1 °F -11.3 °F 1030.7 in Calm     91% 0.0 in WeatherDisplay:10.37 W/m2 CLR
22:14 -10.2 °F -11.4 °F 1030.7 in Calm     91% 0.0 in WeatherDisplay:10.37 W/m2 CLR
22:19 -10.2 °F -11.4 °F 1030.7 in Calm     91% 0.0 in WeatherDisplay:10.37 W/m2 CLR
22:24 -10.2 °F -11.4 °F 1030.3 in Calm     91% 0.0 in WeatherDisplay:10.37 W/m2 CLR
22:29 -10.2 °F -11.4 °F 1030.3 in Calm     91% 0.0 in WeatherDisplay:10.37 W/m2 CLR
22:34 -10.2 °F -11.4 °F 1030.3 in Calm     91% 0.0 in WeatherDisplay:10.37 W/m2 CLR
22:39 -10.3 °F -11.5 °F 1030.3 in ESE 1.9 mph 0.6 mph 91% 0.0 in WeatherDisplay:10.37 W/m2 CLR
22:44 -10.3 °F -11.5 °F 1030.0 in ESE 1.9 mph 1.4 mph 91% 0.0 in WeatherDisplay:10.37 W/m2 CLR
22:49 -10.2 °F -11.4 °F 1030.0 in ESE 1.9 mph 0.3 mph 91% 0.0 in WeatherDisplay:10.37 W/m2 CLR
22:54 -10.2 °F -11.4 °F 1029.6 in Calm     91% 0.0 in WeatherDisplay:10.37 W/m2 CLR
22:59 -10.2 °F -11.4 °F 1030.0 in Calm     91% 0.0 in WeatherDisplay:10.37 W/m2 CLR
23:04 -10.3 °F -11.5 °F 1029.6 in Calm     91% 0.0 in WeatherDisplay:10.37 W/m2 CLR
23:09 -10.3 °F -11.5 °F 1029.6 in Calm     91% 0.0 in WeatherDisplay:10.37 W/m2 CLR
23:14 -10.4 °F -11.6 °F 1029.3 in Calm     91% 0.0 in WeatherDisplay:10.37 W/m2 CLR
23:19 -10.4 °F -11.6 °F 1029.3 in Calm     91% 0.0 in WeatherDisplay:10.37 W/m2 CLR
23:24 -10.4 °F -11.6 °F 1029.3 in Calm     91% 0.0 in WeatherDisplay:10.37 W/m2 CLR
23:29 -10.4 °F -11.6 °F 1029.6 in Calm     91% 0.0 in WeatherDisplay:10.37 W/m2 CLR
23:34 -10.4 °F -11.6 °F 1029.3 in Calm     91% 0.0 in WeatherDisplay:10.37 W/m2 CLR
23:39 -10.4 °F -11.6 °F 1029.6 in Calm     91% 0.0 in WeatherDisplay:10.37 W/m2 CLR
Juneau County Weather
Compliments of Weather Underground - 3.5 mb